Cairo, Missouri
Current Conditions -  °F | °C
As of 3:55 AM on Monday 22 Dec 2014 (Local Time) from KVER Reporting Station
Overcast Overcast  
Wind Chill:   Ceiling: 3600
Heat Index:   Visibility: 10mi
Dew Point:   Wind: 9mph
Humidity: 83%   Direction: 130°SE
Pressure: 29.73"   Gusts: NA
Location:  39.51°N, 92.44°W
Report Text: KVER 220955Z AUTO 13008KT 10SM BKN036 OVC070 05/03 A2973 RMK AO2 T00530026
Loading
Personal Weather Stations






























Interactive Weather Map New forecast layout! Learn more

10-Day Weather Forecast

Advertisements
Track Severe Weather on mobile